createdAt,value
2016-05-07T00:00:21.418Z,0
2016-05-07T00:01:21.468Z,0
2016-05-07T00:02:21.517Z,0
2016-05-07T00:03:21.395Z,0
2016-05-07T00:04:21.429Z,0
2016-05-07T00:05:21.650Z,0
2016-05-07T00:06:21.653Z,0
2016-05-07T00:07:21.687Z,0
2016-05-07T00:08:21.737Z,0
2016-05-07T00:09:21.770Z,0
2016-05-07T00:10:21.805Z,0
2016-05-07T00:11:21.838Z,0
2016-05-07T00:12:21.904Z,0
2016-05-07T00:13:21.922Z,0
2016-05-07T00:14:21.815Z,0
2016-05-07T00:15:21.975Z,0
2016-05-07T00:16:22.039Z,0
2016-05-07T00:17:21.948Z,0
2016-05-07T00:18:22.107Z,0
2016-05-07T00:19:22.000Z,0
2016-05-07T00:20:22.019Z,0
2016-05-07T00:21:22.225Z,0
2016-05-07T00:22:22.118Z,0
2016-05-07T00:23:22.121Z,0
2016-05-07T00:24:22.185Z,0
2016-05-07T00:25:22.376Z,0
2016-05-07T00:26:22.098Z,0
2016-05-07T00:27:22.476Z,0
2016-05-07T00:28:22.353Z,0
2016-05-07T00:29:22.527Z,0
2016-05-07T00:30:22.404Z,0
2016-05-07T00:31:22.440Z,0
2016-05-07T00:32:22.364Z,0
2016-05-07T00:33:22.695Z,0
2016-05-07T00:34:22.556Z,0
2016-05-07T00:35:22.590Z,0
2016-05-07T00:36:22.781Z,0
2016-05-07T00:37:22.830Z,0
2016-05-07T00:38:22.849Z,0
2016-05-07T00:39:22.742Z,0
2016-05-07T00:40:22.948Z,0
2016-05-07T00:41:22.653Z,0
2016-05-07T00:42:23.205Z,0
2016-05-07T00:43:22.721Z,0
2016-05-07T00:44:22.927Z,0
2016-05-07T00:45:22.961Z,0
2016-05-07T00:46:23.169Z,0
2016-05-07T00:47:23.203Z,0
2016-05-07T00:48:23.063Z,0
2016-05-07T00:49:23.097Z,0
2016-05-07T00:50:23.305Z,0
2016-05-07T00:51:23.024Z,0
2016-05-07T00:52:23.388Z,0
2016-05-07T00:53:23.438Z,0
2016-05-07T00:54:23.313Z,0
2016-05-07T00:55:23.491Z,0
2016-05-07T00:56:23.525Z,0
2016-05-07T00:57:24.620Z,0
2016-05-07T00:58:23.292Z,0
2016-05-07T00:59:23.642Z,0
2016-05-07T01:00:23.692Z,0
2016-05-07T01:01:23.725Z,0
2016-05-07T01:02:23.603Z,0
2016-05-07T01:03:23.778Z,0
2016-05-07T01:04:23.671Z,0
2016-05-07T01:05:23.862Z,0
2016-05-07T01:06:23.895Z,0
2016-05-07T01:07:23.929Z,0
2016-05-07T01:08:23.978Z,0
2016-05-07T01:09:23.856Z,0
2016-05-07T01:10:23.890Z,0
2016-05-07T01:11:23.925Z,0
2016-05-07T01:12:24.239Z,0
2016-05-07T01:13:24.008Z,0
2016-05-07T01:14:23.886Z,0
2016-05-07T01:15:24.075Z,0
2016-05-07T01:16:24.281Z,0
2016-05-07T01:17:24.159Z,0
2016-05-07T01:18:24.349Z,0
2016-05-07T01:19:24.368Z,0
2016-05-07T01:20:24.416Z,0
2016-05-07T01:21:24.452Z,0
2016-05-07T01:22:24.344Z,0
2016-05-07T01:23:24.535Z,0
2016-05-07T01:24:24.552Z,0
2016-05-07T01:25:24.275Z,0
2016-05-07T01:26:24.636Z,0
2016-05-07T01:27:24.405Z,0
2016-05-07T01:28:24.705Z,0
2016-05-07T01:29:24.754Z,0
2016-05-07T01:30:24.787Z,0
2016-05-07T01:31:24.666Z,0
2016-05-07T01:32:24.699Z,0
2016-05-07T01:33:24.890Z,0
2016-05-07T01:34:24.924Z,0
2016-05-07T01:35:24.973Z,0
2016-05-07T01:36:25.023Z,0
2016-05-07T01:37:25.041Z,0
2016-05-07T01:38:24.934Z,0
2016-05-07T01:39:25.109Z,0
2016-05-07T01:40:24.831Z,0
2016-05-07T01:41:25.513Z,0
2016-05-07T01:42:25.598Z,0
2016-05-07T01:43:25.789Z,0
2016-05-07T01:44:26.460Z,0
2016-05-07T01:45:25.149Z,0
2016-05-07T01:46:25.371Z,0
2016-05-07T01:47:25.234Z,0
2016-05-07T01:48:25.439Z,0
2016-05-07T01:49:25.456Z,0
2016-05-07T01:50:25.507Z,0
2016-05-07T01:51:25.400Z,0
2016-05-07T01:52:25.589Z,0
2016-05-07T01:53:25.640Z,0
2016-05-07T01:54:25.517Z,0
2016-05-07T01:55:25.380Z,0
2016-05-07T01:56:25.726Z,0
2016-05-07T01:57:25.963Z,0
2016-05-07T01:58:25.825Z,0
2016-05-07T01:59:25.672Z,0
2016-05-07T02:00:25.877Z,0
2016-05-07T02:01:25.771Z,0
2016-05-07T02:02:25.945Z,0
2016-05-07T02:03:25.838Z,0
2016-05-07T02:04:26.044Z,0
2016-05-07T02:05:26.063Z,0
2016-05-07T02:06:26.097Z,0
2016-05-07T02:07:25.818Z,0
2016-05-07T02:08:26.008Z,0
2016-05-07T02:09:26.198Z,0
2016-05-07T02:10:26.279Z,0
2016-05-07T02:11:26.126Z,0
2016-05-07T02:12:25.863Z,0
2016-05-07T02:13:26.287Z,0
2016-05-07T02:14:26.415Z,0
2016-05-07T02:15:26.417Z,0
2016-05-07T02:16:26.155Z,0
2016-05-07T02:17:26.501Z,0
2016-05-07T02:18:26.520Z,0
2016-05-07T02:19:26.412Z,0
2016-05-07T02:20:26.618Z,0
2016-05-07T02:21:26.652Z,0
2016-05-07T02:22:26.515Z,0
2016-05-07T02:23:26.736Z,0
2016-05-07T02:24:26.757Z,0
2016-05-07T02:25:26.807Z,0
2016-05-07T02:26:26.669Z,0
2016-05-07T02:27:26.562Z,0
2016-05-07T02:28:26.909Z,0
2016-05-07T02:29:26.928Z,0
2016-05-07T02:30:26.961Z,0
2016-05-07T02:31:26.838Z,0
2016-05-07T02:32:27.044Z,0
2016-05-07T02:33:27.079Z,0
2016-05-07T02:34:27.097Z,0
2016-05-07T02:35:27.147Z,0
2016-05-07T02:36:27.180Z,0
2016-05-07T02:37:27.198Z,0
2016-05-07T02:38:27.123Z,0
2016-05-07T02:39:26.970Z,0
2016-05-07T02:40:27.175Z,0
2016-05-07T02:41:27.366Z,0
2016-05-07T02:42:27.758Z,0
2016-05-07T02:43:27.433Z,0
2016-05-07T02:44:27.155Z,0
2016-05-07T02:45:27.049Z,0
2016-05-07T02:46:27.551Z,0
2016-05-07T02:47:27.585Z,0
2016-05-07T02:48:27.618Z,0
2016-05-07T02:49:27.496Z,0
2016-05-07T02:50:27.218Z,0
2016-05-07T02:51:27.721Z,0
2016-05-07T02:52:27.754Z,0
2016-05-07T02:53:27.788Z,0
2016-05-07T02:54:27.838Z,0
2016-05-07T02:55:27.747Z,0
2016-05-07T02:56:27.906Z,0
2016-05-07T02:57:27.846Z,0
2016-05-07T02:58:27.989Z,0
2016-05-07T02:59:27.851Z,0
2016-05-07T03:00:27.776Z,0
2016-05-07T03:01:28.075Z,0
2016-05-07T03:02:27.969Z,0
2016-05-07T03:03:27.847Z,0
2016-05-07T03:04:28.209Z,0
2016-05-07T03:05:28.242Z,0
2016-05-07T03:06:27.964Z,0
2016-05-07T03:07:28.294Z,0
2016-05-07T03:08:28.344Z,0
2016-05-07T03:09:28.363Z,0
2016-05-07T03:10:28.397Z,0
2016-05-07T03:11:28.336Z,0
2016-05-07T03:12:28.480Z,0
2016-05-07T03:13:28.513Z,0
2016-05-07T03:14:28.408Z,0
2016-05-07T03:15:28.582Z,0
2016-05-07T03:16:28.616Z,0
2016-05-07T03:17:28.649Z,0
2016-05-07T03:18:28.543Z,0
2016-05-07T03:19:28.545Z,0
2016-05-07T03:20:28.674Z,0
2016-05-07T03:21:28.504Z,0
2016-05-07T03:22:28.820Z,0
2016-05-07T03:23:28.868Z,0
2016-05-07T03:24:28.904Z,0
2016-05-07T03:25:28.781Z,0
2016-05-07T03:26:28.987Z,0
2016-05-07T03:27:29.864Z,0
2016-05-07T03:28:29.070Z,0
2016-05-07T03:29:28.931Z,0
2016-05-07T03:30:29.107Z,0
2016-05-07T03:31:29.156Z,0
2016-05-07T03:32:29.206Z,0
2016-05-07T03:33:29.224Z,0
2016-05-07T03:34:29.274Z,0
2016-05-07T03:35:29.136Z,0
2016-05-07T03:36:29.029Z,0
2016-05-07T03:37:29.360Z,0
2016-05-07T03:38:29.253Z,0
2016-05-07T03:39:29.286Z,0
2016-05-07T03:40:29.478Z,0
2016-05-07T03:41:29.496Z,0
2016-05-07T03:42:29.419Z,0
2016-05-07T03:43:29.594Z,5
2016-05-07T03:44:29.613Z,5
2016-05-07T03:45:29.335Z,5
2016-05-07T03:46:29.681Z,5
2016-05-07T03:47:29.558Z,5
2016-05-07T03:48:29.593Z,5
2016-05-07T03:49:29.799Z,5
2016-05-07T03:50:29.816Z,5
2016-05-07T03:51:29.710Z,5
2016-05-07T03:52:29.900Z,10
2016-05-07T03:53:29.778Z,10
2016-05-07T03:54:29.984Z,10
2016-05-07T03:55:29.986Z,10
2016-05-07T03:56:30.068Z,10
2016-05-07T03:57:29.867Z,10
2016-05-07T03:58:30.120Z,10
2016-05-07T03:59:29.840Z,15
2016-05-07T04:00:30.187Z,15
2016-05-07T04:01:30.237Z,15
2016-05-07T04:02:30.098Z,15
2016-05-07T04:03:30.305Z,15
2016-05-07T04:04:30.323Z,20
2016-05-07T04:05:30.201Z,20
2016-05-07T04:06:30.391Z,20
2016-05-07T04:07:30.425Z,20
2016-05-07T04:08:30.459Z,20
2016-05-07T04:09:30.508Z,25
2016-05-07T04:10:30.542Z,25
2016-05-07T04:11:30.389Z,25
2016-05-07T04:12:31.500Z,25
2016-05-07T04:13:30.644Z,30
2016-05-07T04:14:30.538Z,30
2016-05-07T04:15:30.399Z,30
2016-05-07T04:16:30.746Z,30
2016-05-07T04:17:30.624Z,30
2016-05-07T04:18:30.642Z,35
2016-05-07T04:19:30.863Z,35
2016-05-07T04:20:30.741Z,35
2016-05-07T04:21:30.774Z,35
2016-05-07T04:22:30.965Z,40
2016-05-07T04:23:30.999Z,40
2016-05-07T04:24:31.033Z,40
2016-05-07T04:25:31.067Z,45
2016-05-07T04:26:31.132Z,45
2016-05-07T04:27:31.620Z,50
2016-05-07T04:28:31.168Z,50
2016-05-07T04:29:31.062Z,50
2016-05-07T04:30:31.081Z,55
2016-05-07T04:31:31.286Z,60
2016-05-07T04:32:31.320Z,65
2016-05-07T04:33:31.339Z,70
2016-05-07T04:34:31.388Z,70
2016-05-07T04:35:31.438Z,70
2016-05-07T04:36:31.300Z,75
2016-05-07T04:37:31.489Z,80
2016-05-07T04:38:31.384Z,80
2016-05-07T04:39:31.417Z,80
2016-05-07T04:40:31.591Z,80
2016-05-07T04:41:31.625Z,75
2016-05-07T04:42:31.536Z,75
2016-05-07T04:43:31.694Z,80
2016-05-07T04:44:31.758Z,80
2016-05-07T04:45:31.793Z,80
2016-05-07T04:46:41.967Z,80
2016-05-07T04:47:31.861Z,85
2016-05-07T04:48:31.722Z,85
2016-05-07T04:49:31.772Z,85
2016-05-07T04:50:31.963Z,85
2016-05-07T04:51:31.840Z,90
2016-05-07T04:52:32.030Z,90
2016-05-07T04:53:32.079Z,90
2016-05-07T04:54:32.098Z,90
2016-05-07T04:55:31.976Z,90
2016-05-07T04:56:32.010Z,95
2016-05-07T04:57:31.901Z,95
2016-05-07T04:58:32.093Z,95
2016-05-07T04:59:32.268Z,95
2016-05-07T05:00:32.318Z,95
2016-05-07T05:01:32.195Z,95
2016-05-07T05:02:32.073Z,95
2016-05-07T05:03:32.262Z,100
2016-05-07T05:04:32.470Z,105
2016-05-07T05:05:32.503Z,100
2016-05-07T05:06:32.536Z,100
2016-05-07T05:07:32.586Z,105
2016-05-07T05:08:32.620Z,100
2016-05-07T05:09:32.639Z,100
2016-05-07T05:10:32.689Z,105
2016-05-07T05:11:32.706Z,105
2016-05-07T05:12:32.772Z,105
2016-05-07T05:13:32.789Z,105
2016-05-07T05:14:32.824Z,105
2016-05-07T05:15:32.858Z,105
2016-05-07T05:16:32.923Z,110
2016-05-07T05:17:32.783Z,110
2016-05-07T05:18:32.972Z,110
2016-05-07T05:19:33.007Z,110
2016-05-07T05:20:33.041Z,110
2016-05-07T05:21:32.918Z,110
2016-05-07T05:22:32.953Z,115
2016-05-07T05:23:33.174Z,115
2016-05-07T05:24:33.191Z,115
2016-05-07T05:25:33.069Z,115
2016-05-07T05:26:33.276Z,120
2016-05-07T05:27:34.202Z,120
2016-05-07T05:28:33.187Z,120
2016-05-07T05:29:33.393Z,120
2016-05-07T05:30:33.255Z,120
2016-05-07T05:31:33.289Z,120
2016-05-07T05:32:33.479Z,120
2016-05-07T05:33:33.529Z,120
2016-05-07T05:34:33.562Z,125
2016-05-07T05:35:33.612Z,125
2016-05-07T05:36:33.631Z,125
2016-05-07T05:37:33.664Z,130
2016-05-07T05:38:33.698Z,135
2016-05-07T05:39:33.748Z,145
2016-05-07T05:40:33.609Z,145
2016-05-07T05:41:33.817Z,135
2016-05-07T05:42:34.194Z,135
2016-05-07T05:43:34.086Z,135
2016-05-07T05:44:33.934Z,140
2016-05-07T05:45:33.967Z,140
2016-05-07T05:46:34.001Z,140
2016-05-07T05:47:34.019Z,140
2016-05-07T05:48:33.913Z,140
2016-05-07T05:49:34.088Z,140
2016-05-07T05:50:33.996Z,140
2016-05-07T05:51:34.186Z,140
2016-05-07T05:52:34.205Z,140
2016-05-07T05:53:34.239Z,140
2016-05-07T05:54:34.288Z,140
2016-05-07T05:55:34.322Z,140
2016-05-07T05:56:34.216Z,140
2016-05-07T05:57:34.640Z,140
2016-05-07T05:58:34.424Z,140
2016-05-07T05:59:34.474Z,140
2016-05-07T06:00:34.508Z,140
2016-05-07T06:01:34.541Z,145
2016-05-07T06:02:34.576Z,145
2016-05-07T06:03:34.312Z,145
2016-05-07T06:04:34.643Z,145
2016-05-07T06:05:34.677Z,145
2016-05-07T06:06:34.727Z,145
2016-05-07T06:07:34.776Z,145
2016-05-07T06:08:34.670Z,145
2016-05-07T06:09:34.829Z,145
2016-05-07T06:10:34.723Z,150
2016-05-07T06:11:34.756Z,150
2016-05-07T06:12:36.445Z,145
2016-05-07T06:13:35.011Z,155
2016-05-07T06:14:34.873Z,165
2016-05-07T06:15:34.892Z,175
2016-05-07T06:16:35.114Z,165
2016-05-07T06:17:34.991Z,160
2016-05-07T06:18:35.181Z,155
2016-05-07T06:19:35.231Z,155
2016-05-07T06:20:35.250Z,155
2016-05-07T06:21:35.299Z,155
2016-05-07T06:22:35.333Z,155
2016-05-07T06:23:35.116Z,155
2016-05-07T06:24:36.057Z,155
2016-05-07T06:25:35.435Z,160
2016-05-07T06:26:35.499Z,165
2016-05-07T06:27:36.252Z,160
2016-05-07T06:28:35.552Z,160
2016-05-07T06:29:35.429Z,165
2016-05-07T06:30:35.619Z,165
2016-05-07T06:31:35.496Z,170
2016-05-07T06:32:35.703Z,170
2016-05-07T06:33:35.425Z,170
2016-05-07T06:34:35.490Z,170
2016-05-07T06:35:35.820Z,175
2016-05-07T06:36:35.855Z,170
2016-05-07T06:37:35.732Z,170
2016-05-07T06:38:35.782Z,175
2016-05-07T06:39:35.972Z,175
2016-05-07T06:40:35.678Z,180
2016-05-07T06:41:36.024Z,185
2016-05-07T06:42:35.886Z,205
2016-05-07T06:43:36.123Z,205
2016-05-07T06:44:36.156Z,185
2016-05-07T06:45:35.863Z,200
2016-05-07T06:46:35.912Z,195
2016-05-07T06:47:36.275Z,195
2016-05-07T06:48:36.137Z,185
2016-05-07T06:49:36.342Z,185
2016-05-07T06:50:36.377Z,185
2016-05-07T06:51:36.426Z,185
2016-05-07T06:52:36.444Z,185
2016-05-07T06:53:36.494Z,185
2016-05-07T06:54:36.528Z,190
2016-05-07T06:55:36.561Z,195
2016-05-07T06:56:36.611Z,195
2016-05-07T06:57:37.973Z,195
2016-05-07T06:58:36.524Z,190
2016-05-07T06:59:36.713Z,190
2016-05-07T07:00:36.762Z,190
2016-05-07T07:01:36.624Z,190
2016-05-07T07:02:36.690Z,190
2016-05-07T07:03:36.724Z,190
2016-05-07T07:04:36.602Z,195
2016-05-07T07:05:36.963Z,195
2016-05-07T07:06:36.982Z,195
2016-05-07T07:07:36.875Z,195
2016-05-07T07:08:37.051Z,195
2016-05-07T07:09:37.115Z,200
2016-05-07T07:10:36.976Z,195
2016-05-07T07:11:37.184Z,195
2016-05-07T07:12:37.092Z,195
2016-05-07T07:13:37.110Z,200
2016-05-07T07:14:37.284Z,200
2016-05-07T07:15:37.178Z,200
2016-05-07T07:16:37.211Z,200
2016-05-07T07:17:37.246Z,210
2016-05-07T07:18:37.453Z,210
2016-05-07T07:19:37.330Z,200
2016-05-07T07:20:37.378Z,200
2016-05-07T07:21:37.569Z,205
2016-05-07T07:22:37.603Z,205
2016-05-07T07:23:37.637Z,205
2016-05-07T07:24:37.359Z,205
2016-05-07T07:25:37.721Z,205
2016-05-07T07:26:37.583Z,210
2016-05-07T07:27:38.913Z,235
2016-05-07T07:28:37.822Z,235
2016-05-07T07:29:37.856Z,210
2016-05-07T07:30:37.891Z,205
2016-05-07T07:31:37.628Z,210
2016-05-07T07:32:37.990Z,215
2016-05-07T07:33:38.007Z,215
2016-05-07T07:34:38.073Z,220
2016-05-07T07:35:37.951Z,225
2016-05-07T07:36:38.126Z,225
2016-05-07T07:37:38.175Z,225
2016-05-07T07:38:38.209Z,395
2016-05-07T07:39:38.087Z,660
2016-05-07T07:40:38.292Z,410
2016-05-07T07:41:38.326Z,310
2016-05-07T07:42:38.313Z,320
2016-05-07T07:43:38.410Z,265
2016-05-07T07:44:38.287Z,280
2016-05-07T07:45:38.493Z,355
2016-05-07T07:46:38.370Z,540
2016-05-07T07:47:38.405Z,615
2016-05-07T07:48:38.454Z,555
2016-05-07T07:49:38.629Z,560
2016-05-07T07:50:38.522Z,705
2016-05-07T07:51:38.712Z,1160
2016-05-07T07:52:38.605Z,1285
2016-05-07T07:53:38.812Z,1320
2016-05-07T07:54:38.689Z,1335
2016-05-07T07:55:38.723Z,1310
2016-05-07T07:56:38.930Z,1295
2016-05-07T07:57:39.572Z,1295
2016-05-07T07:58:38.841Z,1300
2016-05-07T07:59:39.046Z,1300
2016-05-07T08:00:38.940Z,1325
2016-05-07T08:01:38.989Z,1315
2016-05-07T08:02:39.180Z,1310
2016-05-07T08:03:39.057Z,1315
2016-05-07T08:04:39.107Z,1345
2016-05-07T08:05:39.296Z,1340
2016-05-07T08:06:39.363Z,1325
2016-05-07T08:07:39.224Z,1315
2016-05-07T08:08:39.290Z,1310
2016-05-07T08:09:39.323Z,1315
2016-05-07T08:10:39.529Z,1310
2016-05-07T08:11:39.595Z,1295
2016-05-07T08:12:40.112Z,1275
2016-05-07T08:13:39.662Z,1270
2016-05-07T08:14:39.556Z,1275
2016-05-07T08:15:39.745Z,1250
2016-05-07T08:16:39.640Z,1240
2016-05-07T08:17:39.876Z,1280
2016-05-07T08:18:39.738Z,1350
2016-05-07T08:19:39.772Z,1390
2016-05-07T08:20:39.822Z,1370
2016-05-07T08:21:40.043Z,1320
2016-05-07T08:22:40.078Z,1265
2016-05-07T08:23:40.111Z,1205
2016-05-07T08:24:40.191Z,1190
2016-05-07T08:25:40.069Z,1200
2016-05-07T08:26:40.261Z,1210
2016-05-07T08:27:41.450Z,1165
2016-05-07T08:28:40.046Z,1080
2016-05-07T08:29:40.413Z,1010
2016-05-07T08:30:40.333Z,940
2016-05-07T08:31:40.427Z,905
2016-05-07T08:32:40.519Z,920
2016-05-07T08:33:40.768Z,935
2016-05-07T08:34:40.701Z,950
2016-05-07T08:35:40.906Z,970
2016-05-07T08:36:40.972Z,1025
2016-05-07T08:37:40.881Z,1125
2016-05-07T08:38:41.101Z,1260
2016-05-07T08:39:41.008Z,1390
2016-05-07T08:40:41.221Z,1460
2016-05-07T08:41:41.119Z,1485
2016-05-07T08:42:41.175Z,1505
2016-05-07T08:43:41.074Z,1520
2016-05-07T08:44:41.269Z,1540
2016-05-07T08:45:41.477Z,1550
2016-05-07T08:46:41.389Z,1560
2016-05-07T08:47:41.424Z,1570
2016-05-07T08:48:41.647Z,1570
2016-05-07T08:49:41.684Z,1545
2016-05-07T08:50:41.749Z,1560
2016-05-07T08:51:41.627Z,1525
2016-05-07T08:52:41.850Z,1060
2016-05-07T08:53:41.884Z,455
2016-05-07T08:54:41.778Z,380
2016-05-07T08:55:41.984Z,380
2016-05-07T08:56:42.051Z,445
2016-05-07T08:57:42.194Z,420
2016-05-07T08:58:41.978Z,595
2016-05-07T08:59:42.028Z,970
2016-05-07T09:00:42.437Z,1085
2016-05-07T09:01:42.111Z,1250
2016-05-07T09:02:42.161Z,1020
2016-05-07T09:03:42.366Z,810
2016-05-07T09:04:42.417Z,450
2016-05-07T09:05:42.451Z,385
2016-05-07T09:06:42.516Z,410
2016-05-07T09:07:42.409Z,325
2016-05-07T09:08:42.615Z,450
2016-05-07T09:09:42.321Z,825
2016-05-07T09:10:42.699Z,685
2016-05-07T09:11:42.732Z,685
2016-05-07T09:12:42.704Z,735
2016-05-07T09:13:42.831Z,1245
2016-05-07T09:14:42.726Z,1625
2016-05-07T09:15:42.946Z,1680
2016-05-07T09:16:42.981Z,1705
2016-05-07T09:17:43.014Z,1715
2016-05-07T09:18:43.064Z,1720
2016-05-07T09:19:43.114Z,1720
2016-05-07T09:20:43.007Z,1720
2016-05-07T09:21:43.056Z,1735
2016-05-07T09:22:43.261Z,1745
2016-05-07T09:23:43.296Z,1745
2016-05-07T09:24:43.345Z,1755
2016-05-07T09:25:43.395Z,1725
2016-05-07T09:26:43.445Z,1730
2016-05-07T09:27:43.791Z,1730
2016-05-07T09:28:43.544Z,1730
2016-05-07T09:29:43.578Z,1765
2016-05-07T09:30:43.627Z,1790
2016-05-07T09:31:43.708Z,1800
2016-05-07T09:32:43.554Z,1775
2016-05-07T09:33:43.760Z,1760
2016-05-07T09:34:43.825Z,1750
2016-05-07T09:35:43.875Z,1745
2016-05-07T09:36:43.925Z,1750
2016-05-07T09:37:43.990Z,1780
2016-05-07T09:38:44.040Z,1790
2016-05-07T09:39:43.776Z,1775
2016-05-07T09:40:44.138Z,1775
2016-05-07T09:41:44.173Z,1765
2016-05-07T09:42:44.238Z,1770
2016-05-07T09:43:44.115Z,1765
2016-05-07T09:44:44.321Z,1780
2016-05-07T09:45:44.199Z,1795
2016-05-07T09:46:44.249Z,1825
2016-05-07T09:47:44.454Z,1820
2016-05-07T09:48:44.535Z,1815
2016-05-07T09:49:44.553Z,1830
2016-05-07T09:50:44.603Z,1845
2016-05-07T09:51:44.653Z,1835
2016-05-07T09:52:44.562Z,1810
2016-05-07T09:53:44.783Z,1790
2016-05-07T09:54:44.645Z,1760
2016-05-07T09:55:44.553Z,1740
2016-05-07T09:56:44.901Z,1755
2016-05-07T09:57:45.200Z,1775
2016-05-07T09:58:44.859Z,1825
2016-05-07T09:59:45.064Z,1855
2016-05-07T10:00:45.130Z,1870
2016-05-07T10:01:45.008Z,1860
2016-05-07T10:02:45.230Z,1875
2016-05-07T10:03:45.278Z,1915
2016-05-07T10:04:45.344Z,1905
2016-05-07T10:05:45.378Z,1920
2016-05-07T10:06:45.427Z,1905
2016-05-07T10:07:45.477Z,1890
2016-05-07T10:08:45.214Z,1875
2016-05-07T10:09:45.091Z,1870
2016-05-07T10:10:45.626Z,1855
2016-05-07T10:11:45.519Z,1870
2016-05-07T10:12:45.756Z,1860
2016-05-07T10:13:45.774Z,1850
2016-05-07T10:14:45.668Z,1855
2016-05-07T10:15:45.873Z,1855
2016-05-07T10:16:45.938Z,1870
2016-05-07T10:17:45.863Z,1905
2016-05-07T10:18:46.288Z,1895
2016-05-07T10:19:45.931Z,1885
2016-05-07T10:20:45.996Z,1875
2016-05-07T10:21:46.187Z,1890
2016-05-07T10:22:46.236Z,1900
2016-05-07T10:23:46.285Z,1915
2016-05-07T10:24:46.038Z,1935
2016-05-07T10:25:46.417Z,1960
2016-05-07T10:26:46.450Z,1950
2016-05-07T10:27:46.509Z,1970
2016-05-07T10:28:46.545Z,1975
2016-05-07T10:29:46.594Z,1980
2016-05-07T10:30:46.642Z,1940
2016-05-07T10:31:46.537Z,1900
2016-05-07T10:32:46.758Z,1860
2016-05-07T10:33:46.808Z,1835
2016-05-07T10:34:46.685Z,1805
2016-05-07T10:35:46.892Z,1780
2016-05-07T10:36:46.956Z,1780
2016-05-07T10:37:46.833Z,1785
2016-05-07T10:38:47.056Z,1785
2016-05-07T10:39:47.121Z,1755
2016-05-07T10:40:47.154Z,1730
2016-05-07T10:41:47.204Z,1695
2016-05-07T10:42:47.222Z,1700
2016-05-07T10:43:47.335Z,1700
2016-05-07T10:44:47.087Z,1710
2016-05-07T10:45:47.246Z,1705
2016-05-07T10:46:47.483Z,1710
2016-05-07T10:47:47.376Z,1715
2016-05-07T10:48:47.441Z,1715
2016-05-07T10:49:47.319Z,1710
2016-05-07T10:50:47.557Z,1705
2016-05-07T10:51:47.418Z,1760
2016-05-07T10:52:47.796Z,1825
2016-05-07T10:53:47.674Z,1860
2016-05-07T10:54:47.911Z,1870
2016-05-07T10:55:47.945Z,1915
2016-05-07T10:56:47.681Z,1930
2016-05-07T10:57:49.170Z,1935
2016-05-07T10:58:47.968Z,1935
2016-05-07T10:59:48.174Z,1960
2016-05-07T11:00:48.053Z,1980
2016-05-07T11:01:48.101Z,1975
2016-05-07T11:02:48.307Z,1990
2016-05-07T11:03:48.356Z,1990
2016-05-07T11:04:48.423Z,2025
2016-05-07T11:05:48.316Z,2000
2016-05-07T11:06:48.552Z,2015
2016-05-07T11:07:48.587Z,1980
2016-05-07T11:08:48.620Z,1935
2016-05-07T11:09:48.701Z,1935
2016-05-07T11:10:48.735Z,1910
2016-05-07T11:11:48.785Z,1935
2016-05-07T11:12:48.991Z,1955
2016-05-07T11:13:48.899Z,1960
2016-05-07T11:14:48.793Z,1955
2016-05-07T11:15:48.999Z,1920
2016-05-07T11:16:48.595Z,1860
2016-05-07T11:17:49.129Z,1840
2016-05-07T11:18:49.007Z,1855
2016-05-07T11:19:49.213Z,1880
2016-05-07T11:20:49.277Z,1855
2016-05-07T11:21:49.327Z,1820
2016-05-07T11:22:49.376Z,1875
2016-05-07T11:23:49.832Z,1870
2016-05-07T11:24:49.523Z,1850
2016-05-07T11:25:49.541Z,1815
2016-05-07T11:26:49.450Z,1845
2016-05-07T11:27:49.875Z,1885
2016-05-07T11:28:49.378Z,1920
2016-05-07T11:29:49.614Z,1955
2016-05-07T11:30:49.789Z,1975
2016-05-07T11:31:49.542Z,1980
2016-05-07T11:32:49.919Z,1975
2016-05-07T11:33:49.970Z,1950
2016-05-07T11:34:49.847Z,1920
2016-05-07T11:35:50.084Z,1875
2016-05-07T11:36:50.133Z,1890
2016-05-07T11:37:50.166Z,1915
2016-05-07T11:38:50.233Z,1930
2016-05-07T11:39:50.297Z,1940
2016-05-07T11:40:50.191Z,1950
2016-05-07T11:41:50.240Z,1945
2016-05-07T11:42:50.291Z,1955
2016-05-07T11:43:50.339Z,1960
2016-05-07T11:44:50.560Z,1960
2016-05-07T11:45:50.627Z,1980
2016-05-07T11:46:50.676Z,2025
2016-05-07T11:47:50.725Z,1990
2016-05-07T11:48:50.790Z,1975
2016-05-07T11:49:50.824Z,1920
2016-05-07T11:50:50.733Z,1835
2016-05-07T11:51:50.799Z,1750
2016-05-07T11:52:50.520Z,1600
2016-05-07T11:53:51.070Z,1490
2016-05-07T11:54:50.979Z,1505
2016-05-07T11:55:50.825Z,1660
2016-05-07T11:56:51.218Z,1825
2016-05-07T11:57:51.517Z,1930
2016-05-07T11:58:50.849Z,1985
2016-05-07T11:59:51.382Z,2010
2016-05-07T12:00:51.417Z,1995
2016-05-07T12:01:51.481Z,2005
2016-05-07T12:02:51.531Z,2035
2016-05-07T12:03:51.597Z,2025
2016-05-07T12:04:51.489Z,2030
2016-05-07T12:05:51.711Z,2025
2016-05-07T12:06:51.761Z,2005
2016-05-07T12:07:51.654Z,1995
2016-05-07T12:08:51.703Z,2005
2016-05-07T12:09:51.597Z,1985
2016-05-07T12:10:51.959Z,1940
2016-05-07T12:11:52.024Z,1840
2016-05-07T12:12:52.105Z,1760
2016-05-07T12:13:51.983Z,1725
2016-05-07T12:14:52.188Z,1730
2016-05-07T12:15:52.238Z,1730
2016-05-07T12:16:52.132Z,1825
2016-05-07T12:17:52.180Z,1870
2016-05-07T12:18:52.402Z,1935
2016-05-07T12:19:52.140Z,1945
2016-05-07T12:20:52.533Z,1930
2016-05-07T12:21:52.582Z,1940
2016-05-07T12:22:52.460Z,1935
2016-05-07T12:23:52.526Z,1945
2016-05-07T12:24:52.574Z,1955
2016-05-07T12:25:52.781Z,1925
2016-05-07T12:26:52.829Z,1925
2016-05-07T12:27:52.615Z,1920
2016-05-07T12:28:52.945Z,1935
2016-05-07T12:29:52.838Z,1940
2016-05-07T12:30:53.059Z,1935
2016-05-07T12:31:52.937Z,1895
2016-05-07T12:32:53.018Z,1430
2016-05-07T12:33:53.067Z,1910
2016-05-07T12:34:53.274Z,1925
2016-05-07T12:35:53.322Z,1955
2016-05-07T12:36:53.232Z,1935
2016-05-07T12:37:53.438Z,1935
2016-05-07T12:38:53.331Z,1945
2016-05-07T12:39:53.568Z,1985
2016-05-07T12:40:53.618Z,1310
2016-05-07T12:41:53.667Z,1010
2016-05-07T12:42:53.702Z,585
2016-05-07T12:43:53.766Z,735
2016-05-07T12:44:53.816Z,435
2016-05-07T12:45:53.866Z,480
2016-05-07T12:46:53.947Z,1945
2016-05-07T12:47:53.980Z,1735
2016-05-07T12:48:53.858Z,1870
2016-05-07T12:49:54.096Z,1125
2016-05-07T12:50:54.129Z,1755
2016-05-07T12:51:54.179Z,1940
2016-05-07T12:52:54.243Z,1900
2016-05-07T12:53:54.137Z,1855
2016-05-07T12:54:54.186Z,1855
2016-05-07T12:55:54.237Z,1890
2016-05-07T12:56:54.460Z,1925
2016-05-07T12:57:54.885Z,1910
2016-05-07T12:58:54.544Z,1880
2016-05-07T12:59:54.625Z,1860
2016-05-07T13:00:54.328Z,1880
2016-05-07T13:01:54.549Z,1875
2016-05-07T13:02:54.758Z,1875
2016-05-07T13:03:54.667Z,1825
2016-05-07T13:04:54.872Z,1785
2016-05-07T13:05:54.766Z,1790
2016-05-07T13:06:54.987Z,1855
2016-05-07T13:07:54.864Z,1890
2016-05-07T13:08:54.930Z,1855
2016-05-07T13:09:55.152Z,1790
2016-05-07T13:10:55.186Z,1760
2016-05-07T13:11:54.780Z,1800
2016-05-07T13:12:56.925Z,1895
2016-05-07T13:13:55.208Z,1955
2016-05-07T13:14:55.275Z,1985
2016-05-07T13:15:55.136Z,2045
2016-05-07T13:16:55.513Z,2045
2016-05-07T13:17:55.579Z,2005
2016-05-07T13:18:55.629Z,1885
2016-05-07T13:19:55.679Z,1780
2016-05-07T13:20:55.571Z,1710
2016-05-07T13:21:55.793Z,1720
2016-05-07T13:22:55.843Z,1745
2016-05-07T13:23:55.892Z,1735
2016-05-07T13:24:55.926Z,1675
2016-05-07T13:25:55.835Z,1635
2016-05-07T13:26:56.041Z,1620
2016-05-07T13:27:56.184Z,1650
2016-05-07T13:28:55.843Z,1675
2016-05-07T13:29:56.205Z,1650
2016-05-07T13:30:56.270Z,1645
2016-05-07T13:31:56.320Z,1480
2016-05-07T13:32:56.370Z,820
2016-05-07T13:33:56.434Z,660
2016-05-07T13:34:56.484Z,365
2016-05-07T13:35:56.534Z,380
2016-05-07T13:36:56.584Z,315
2016-05-07T13:37:56.648Z,200
2016-05-07T13:38:56.683Z,760
2016-05-07T13:39:56.748Z,260
2016-05-07T13:40:56.781Z,185
2016-05-07T13:41:56.691Z,250
2016-05-07T13:42:56.897Z,365
2016-05-07T13:43:56.634Z,305
2016-05-07T13:44:56.996Z,205
2016-05-07T13:45:57.045Z,205
2016-05-07T13:46:56.922Z,930
2016-05-07T13:47:56.988Z,785
2016-05-07T13:48:56.882Z,1030
2016-05-07T13:49:57.228Z,1285
2016-05-07T13:50:57.137Z,1280
2016-05-07T13:51:57.343Z,1480
2016-05-07T13:52:57.221Z,1490
2016-05-07T13:53:57.427Z,1220